Portada
METAR-TAF:

METAR-TAF

Aeroports :

Arar, Aràbia Saudita

latitud: 30-54N, longitud: 041-08E, altitud: 555 m

Observació

L'informe es va fer fa 1 hora i 0 minuts, a les 02:00 UTC
Vent 4 kt del Oest
Temperatura 24°C
Humitat 20%
Pressió 1010 hPa
Visibilitat 10 km o més
sense núvols per sota de 1500 mi sense presència de cumulonimbus.

METAR: OERR 220200Z 28004KT CAVOK 24/00 Q1010 NOSIG

Hora: 06:00 (03:00 UTC)

Pronòstic

L'informe es va fer fa 4 hores i 0 minuts, a les 23:00 UTC
Pronòstic vàlid del 22 a les 00 UTC al 23 a les 06 UTC
Vent 3 kt amb direcció variable
Visibilitat 10 km o més
sense núvols per sota de 1500 mi sense presència de cumulonimbus.
Evolucionant progressivament
l' 22 a les 09 UTC al 22 a les 11 UTC
Vent 10 kt del Oest
Evolucionant progressivament
l' 22 a les 18 UTC al 22 a les 20 UTC
Vent 5 kt del Nord

TAF: OERR 212300Z 2200/2306 VRB03KT CAVOK BECMG 2209/2211 27010KT BECMG 2218/2220 35005KT

Observacions i pronòstics meteorològics de més de 4000 aeroports (METAR i TAF).

Les estacions disponibles són els punts grocs i vermells al mapa.

Posi el ratolí al punt desitjat per veure el nom de l'estació.

Feu clic per veure les observacions i els pronòstics meteorològics.

Per canviar el mapa: feu clic els botons verds amb una creu de color negre per apropar; al botó verd amb un guió per allunyar la imatge; o en les fletxes verdes per a mapes adjacents.


METAR-TAF: